Flight Track Log - Related Links

Times and Time Zones

All times are in EDT time to prevent confusion due to time zone crossing. See the LOF3416 flight status page for this flight to view local times or setup timezone preferences in your user account.

Time Position Orientation Groundspeed Altitude Reporting Facility
EDT Latitude Longitude Course Direction KTS MPH feet Rate Location/Type
Tue 10:28:00 PM 38.9500 -77.5167 288° West 162 186 2,100  Level Potomac TRACON
Tue 10:29:00 PM 38.9167 -77.5833 237° Southwest 195 224 3,900 1,662 Climbing Potomac TRACON
Tue 10:30:10 PM 38.9039 -77.6669 259° West 224 258 5,700 2,031 Climbing Washington Center
Tue 10:31:10 PM 38.8917 -77.7625 261° West 244 281 8,300 2,370 Climbing Washington Center
Tue 10:32:09 PM 38.8881 -77.8425 267° West 254 292 10,400 1,750 Climbing Washington Center
Tue 10:33:00 PM 38.8994 -78.0306 288° West  Level FlightAware
Tue 10:33:10 PM 38.9050 -77.9469 282° West 259 298 11,800  Level Washington Center
Tue 10:34:09 PM 38.9258 -78.0492 285° West 276 318 13,400 1,450 Climbing Washington Center
Tue 10:35:10 PM 38.9486 -78.1594 285° West 296 341 14,700 1,438 Climbing Washington Center
Tue 10:36:10 PM 38.9608 -78.2692 278° West 308 354 16,300 1,513 Climbing Washington Center
Tue 10:37:09 PM 38.9644 -78.3842 272° West 316 364 17,700 1,513 Climbing Washington Center
Tue 10:38:09 PM 38.9681 -78.4992 272° West 322 371 19,300 1,587 Climbing Washington Center
Tue 10:39:10 PM 38.9714 -78.6114 272° West 322 371 20,900 1,650 Climbing Washington Center
Tue 10:40:09 PM 38.9500 -78.7172 255° West 312 359 22,600 1,513 Climbing Washington Center
Tue 10:41:09 PM 38.9014 -78.8167 238° Southwest 317 365 23,900 1,488 Climbing Washington Center
Tue 10:42:10 PM 38.8508 -78.9103 235° Southwest 324 373 25,600 1,600 Climbing Washington Center
Tue 10:43:09 PM 38.8025 -79.0067 237° Southwest 330 380 27,100 1,200 Climbing Washington Center
Tue 10:44:10 PM 38.7517 -79.1003 235° Southwest 330 380 28,000 446 Climbing Washington Center
Tue 10:45:10 PM 38.7006 -79.2069 238° Southwest 338 389 28,000  Level Washington Center
Tue 10:46:10 PM 38.6469 -79.3267 240° Southwest 370 426 28,000  Level Washington Center
Tue 10:47:09 PM 38.6014 -79.4517 245° Southwest 384 442 28,000  Level Washington Center
Tue 10:48:09 PM 38.6281 -79.5886 284° West 371 427 28,000  Level Washington Center
Tue 10:49:09 PM 38.6719 -79.7081 295° West 384 442 28,000  Level Washington Center
Tue 10:50:09 PM 38.7156 -79.8356 294° West 389 448 28,000  Level Washington Center
Tue 10:51:09 PM 38.7589 -79.9658 293° West 394 453 28,000  Level Washington Center
Tue 10:52:10 PM 38.7961 -80.0828 292° West 380 437 28,000  Level Washington Center
Tue 10:53:09 PM 38.8358 -80.1944 295° West 342 394 28,000  Level Washington Center
Tue 10:54:17 PM 38.8689 -80.2967 293° West 312 359 28,000  Level Indianapolis Center
Tue 10:55:18 PM 38.9033 -80.4078 292° West 332 382 28,000  Level Indianapolis Center
Tue 10:56:19 PM 38.9403 -80.5308 291° West 365 420 28,000  Level Indianapolis Center
Tue 10:57:20 PM 38.9625 -80.6658 282° West 386 444 28,000  Level Indianapolis Center
Tue 10:58:21 PM 38.9864 -80.8058 282° West 400 460 28,000  Level Indianapolis Center
Tue 10:59:23 PM 39.0100 -80.9497 282° West 410 472 28,000  Level Indianapolis Center
Tue 11:00:24 PM 39.0383 -81.1225 282° West 414 476 28,000  Level Indianapolis Center
Tue 11:01:25 PM 39.0611 -81.2608 282° West 402 463 28,000  Level Indianapolis Center
Tue 11:02:26 PM 39.0828 -81.3947 282° West 388 447 28,000  Level Indianapolis Center
Tue 11:03:27 PM 39.1033 -81.5264 281° West 381 438 28,000  Level Indianapolis Center
Tue 11:04:28 PM 39.1247 -81.6614 282° West 386 444 28,000  Level Indianapolis Center
Tue 11:05:29 PM 39.1467 -81.8006 282° West 398 458 28,000  Level Indianapolis Center
Tue 11:06:30 PM 39.1675 -81.9419 281° West 404 465 28,000 -439 Level Indianapolis Center
Tue 11:07:32 PM 39.1892 -82.0836 281° West 406 467 27,100 -1,268 Descending Indianapolis Center
Tue 11:08:33 PM 39.2111 -82.2250 281° West 404 465 25,400 -1,869 Descending Indianapolis Center
Tue 11:09:34 PM 39.2372 -82.3997 281° West 415 478 23,300 -1,770 Descending Indianapolis Center
Tue 11:10:35 PM 39.2547 -82.5200 281° West 402 463 21,800 -1,721 Descending Indianapolis Center
Tue 11:11:36 PM 39.2783 -82.6781 281° West 382 440 19,800 -1,869 Descending Indianapolis Center
Tue 11:12:37 PM 39.2981 -82.8100 281° West 372 428 18,000 -1,623 Descending Indianapolis Center
Tue 11:13:38 PM 39.3169 -82.9394 281° West 365 420 16,500 -1,570 Descending Indianapolis Center
Tue 11:14:24 PM 39.3303 -83.0392 280° West 358 412 15,200 -1,742 Descending Indianapolis Center
Tue 11:14:40 PM 39.3344 -83.0647 282° West 355 409 14,700 -1,833 Descending Indianapolis Center
Tue 11:15:00 PM 39.3406 -83.1022 282° West 350 403 14,100 -1,672 Descending Indianapolis Center
Tue 11:15:41 PM 39.3528 -83.1875 281° West 344 396 13,000 -1,672 Descending Indianapolis Center
Tue 11:16:01 PM 39.3583 -83.2339 279° West 343 395 12,400 -1,770 Descending Indianapolis Center
Tue 11:16:42 PM 39.3819 -83.3011 294° West 327 376 11,200 -1,377 Descending Indianapolis Center
Tue 11:17:02 PM 39.3969 -83.3408 296° West 316 364 11,000 -295 Descending Indianapolis Center
Tue 11:17:43 PM 39.4194 -83.4067 294° West 318 366 10,900  Descending Indianapolis Center
Tue 11:18:02 PM 39.4333 -83.4453 295° West 320 368 11,000  Climbing Indianapolis Center
Tue 11:18:44 PM 39.4578 -83.5122 295° West 320 368 10,900 -98 Descending Indianapolis Center
Tue 11:19:03 PM 39.4717 -83.5497 296° West 321 369 10,900 -590 Level Indianapolis Center
Tue 11:19:45 PM 39.4983 -83.6197 296° West 326 375 10,300 -787 Descending Indianapolis Center
Tue 11:20:04 PM 39.5119 -83.6575 295° West 339 390 10,100 -393 Descending Indianapolis Center
Tue 11:20:46 PM 39.5403 -83.7311 297° West 338 389 9,900 -197 Descending Indianapolis Center
Tue 11:21:05 PM 39.5519 -83.7653 294° West 329 379 9,900  Level Indianapolis Center
Tue 11:21:48 PM 39.5794 -83.8372 296° West 325 374 9,900 98 Level Indianapolis Center
Tue 11:22:06 PM 39.5942 -83.8736 298° West 324 373 10,000  Climbing Indianapolis Center
Tue 11:22:49 PM 39.6117 -83.9436 288° West 315 362 9,900 -295 Descending Indianapolis Center
Tue 11:23:07 PM 39.6158 -83.9739 280° West 256 295 9,700 -1,475 Descending Indianapolis Center
Tue 11:23:50 PM 39.6289 -84.0319 286° West 260 299 8,400 -1,700 Descending Indianapolis Center
Tue 11:24:07 PM 39.6361 -84.0631 287° West 259 298 8,000 -1,377 Descending Indianapolis Center
Tue 11:24:51 PM 39.6492 -84.1214 286° West 256 295 7,000 -1,869 Descending Indianapolis Center
Tue 11:25:08 PM 39.6567 -84.1472 291° West 242 278 6,100 -2,656 Descending Indianapolis Center
Tue 11:25:52 PM 39.6753 -84.2031 293° West 249 287 4,300 -2,066 Descending Indianapolis Center
Tue 11:26:09 PM 39.6883 -84.2272 305° West 250 288 4,000 -295 Descending Indianapolis Center
Tue 11:26:53 PM 39.7108 -84.2814 298° West 248 285 4,000  Level Indianapolis Center
Tue 11:27:10 PM 39.7219 -84.3050 301° West 245 282 4,000 -590 Level Indianapolis Center
Tue 11:27:54 PM 39.7497 -84.3528 307° West 243 280 3,400 -900 Descending Indianapolis Center
Tue 11:28:10 PM 39.7628 -84.3703 314° West 231 266 3,100 -492 Descending Indianapolis Center
Tue 11:28:55 PM 39.8067 -84.3831 347° North 243 280 2,900 -197 Descending Indianapolis Center
Tue 11:29:11 PM 39.8211 -84.3728 29° Northeast 240 276 2,900  Level Indianapolis Center

Login

Don't have an account? Register now (free) for customized features, flight alerts, and more!